West Lafayette, IN

12:23 AM EDT on June 24, 2017 (GMT -0400)
Lindberg Village | | Change Station
Active Advisory: Flood Warning

Elev 614 ft 40.45 °N, 86.97 °W | Updated 3 minutes ago

Mostly Cloudy
Mostly Cloudy
67.8 °F
Feels Like 67.8 °F
N
3.0
Wind Variable Wind from WSW
Gusts 6.8 mph

Today
High -- | Low -- °F
--% Chance of Precip.
Yesterday
High -- | Low -- °F
Precip. -- in
Pressure 29.83 in
Visibility 10.0 miles
Clouds Mostly Cloudy 6500 ft
Mostly Cloudy 7500 ft
Dew Point 57 °F
Humidity 69%
Rainfall 0.00 in
Snow Depth Not available.
6:18 AM 9:22 PM
New Moon, 0% visible
METAR KLAF 240354Z AUTO 28006KT 10SM BKN065 BKN075 19/17 A2984 RMK AO2 SLP101 T01890167
Pressure 29.83 in
Visibility 10.0 miles
Clouds Mostly Cloudy 6500 ft
Mostly Cloudy 7500 ft
Dew Point 57 °F
Humidity 69%
Rainfall 0.00 in
Snow Depth Not available.
6:18 AM 9:22 PM
New Moon, 0% visible
METAR KLAF 240354Z AUTO 28006KT 10SM BKN065 BKN075 19/17 A2984 RMK AO2 SLP101 T01890167

Get Your Daily Forecast Email!

Thanks for signing up!

Be on the lookout for a verification email in your inbox.

You'll start receiving severe weather alerts in your inbox..

×

10-Day Weather Forecast

Almanac

Astronomy

Jun. 24, 2017 Rise Set
Actual Time
Civil Twilight
Nautical Twilight
Astronomical Twilight
Moon
Length of Visible Light
Length of Day
Tomorrow will be .
, % of the Moon is Illuminated

Today's Extremes

State Highs State Lows

Community

WunderPhotos

Category 6

Welcome to Category 6. This is the collective home for Weather Underground's featured writeups by Dr. Jeff Masters (right), Bob Henson (left), Chris Burt, and other regular contributors.

Nearby

Air Quality

  Air Quality AQ Index Pollutant
Not available.

Snow Depth

Station Depth Elevation

Earthquake Activity

City Distance Mag. Time & Date
Minimum magnitude displayed is 2.5.

Coastal Water Temperatures

Place Temperature

Stations

Nearby Weather Stations

Station Location Temp. Windchill Dew Point Humidity Wind Precip. Elev Updated Type
                   

Watches & Warnings

Flood Warning
Issued: 10:11 PM EDT Jun. 23, 2017 – National Weather Service

The Flood Warning continues for
the Wabash River at Lafayette.
* From late tonight to Monday evening.
* At 9:30 PM Friday the stage was 9.4 feet.
* Flood stage is 11.0 feet.
* Minor flooding is forecast.
* Forecast... rise above flood stage by early tomorrow and continue to
rise to near 13.9 feet by early Sunday morning. The river will
fall below flood stage by late Monday morning.
* At 14.0 feet... lowland flooding is in progress. High water affects
river Cabins near north 9th street. Low County roads are nearly
impassable. Tapawingo park in West Lafayette begins to flood.


Lat... Lon 4054 8670 4040 8688 4033 8709 4040 8709
      4048 8688 4056 8673